Time;durP1;ratioP1;P1;durP2;ratioP2;P2;SDS_P1;SDS_P2;PMS_P1;PMS_P2;Temp;Humidity;BMP_temperature;BMP_pressure;BME280_temperature;BME280_humidity;BME280_pressure;Samples;Min_cycle;Max_cycle;Signal;HPM_P1;HPM_P2
2021/07/26 03:30:29;;;;;;;;;;;;;;;6.97;100.00;99099.47;6373156;22;19918;-90
2021/07/26 03:33:04;;;;;;;;;;;;;;;;;;;;;
2021/07/26 03:35:33;;;;;;;;;;;;;;;7.23;100.00;99103.72;6374902;22;20253;-91
2021/07/26 03:38:39;;;;;;;;;;;;;;;7.44;100.00;99104.63;6375060;22;19914;-92
2021/07/26 03:41:07;;;;;;;;;;;;;;;7.42;100.00;99097.72;6301890;22;20020;-92
2021/07/26 03:43:48;;;;;;;;;;;;;;;7.38;100.00;99106.66;6374923;22;19945;-92
2021/07/26 03:46:16;;;;;;;;;;;;;;;7.32;100.00;99105.13;6346901;22;19936;-89
2021/07/26 03:48:42;;;;;;;;;;;;;;;7.64;100.00;99110.84;6377405;22;19989;-92
2021/07/26 04:05:26;;;;;;;;;;;;;;;8.35;100.00;99098.13;6373130;22;19925;-92
2021/07/26 08:37:44;;;;;;;;;;;;;;;7.05;100.00;99217.72;6408065;22;19906;-91
2021/07/26 08:43:34;;;;;;;;;;;;;;;7.09;100.00;99221.97;6248626;22;19918;-91
2021/07/26 08:46:19;;;;;;;;;;;;;;;7.12;100.00;99218.38;6378820;22;19926;-91
2021/07/26 08:49:02;;;;;;;;;;;;;;;7.06;100.00;99225.56;6406688;22;19910;-90
2021/07/26 08:51:32;;;;;;;;;;;;;;;7.09;100.00;99221.97;6406642;22;19944;-90
2021/07/26 08:54:02;;;;;;;;;;;;;;;7.04;100.00;99222.13;6378764;22;19921;-91
2021/07/26 08:56:28;;;;;;;;;;;;;;;7.04;100.00;99219.50;6379144;22;19913;-91
2021/07/26 08:58:53;;;;;;;;;;;;;;;7.11;100.00;99221.91;6406689;22;20302;-90
2021/07/26 09:01:43;;;;;;;;;;;;;;;7.05;100.00;99233.53;6380012;22;19914;-90
2021/07/26 09:04:07;;;;;;;;;;;;;;;7.04;100.00;99239.72;6405836;22;20331;-90
2021/07/26 09:06:40;;;;;;;;;;;;;;;7.07;100.00;99232.56;6378872;22;19914;-91
2021/07/26 09:09:05;;;;;;;;;;;;;;;7.02;100.00;99237.16;6379697;22;19917;-92
2021/07/26 09:11:52;;;;;;;;;;;;;;;7.07;100.00;99243.09;6406326;22;19949;-91
2021/07/26 09:14:36;;;;;;;;;;;;;;;7.05;100.00;99242.31;6407093;22;19921;-90
2021/07/26 09:17:02;;;;;;;;;;;;;;;7.11;100.00;99237.72;6406774;22;19914;-90
2021/07/26 09:54:59;;;;;;;;;;;;;;;;;;;;;
2021/07/26 09:57:44;;;;;;;;;;;;;;;;;;;;;
2021/07/26 10:11:18;;;;;;;;;;;;;;;;;;;;;
2021/07/26 10:13:59;;;;;;;;;;;;;;;7.57;100.00;99239.44;6407516;22;19975;-91
2021/07/26 10:16:35;;;;;;;;;;;;;;;;;;;;;
2021/07/26 10:30:07;;;;;;;;;;;;;;;7.32;100.00;99222.88;6356941;22;19920;-91
2021/07/26 10:33:06;;;;;;;;;;;;;;;;;;;;;
2021/07/26 10:36:00;;;;;;;;;;;;;;;7.32;100.00;99215.81;6400503;22;19937;-91
2021/07/26 10:49:45;;;;;;;;;;;;;;;;;;;;;
2021/07/26 11:19:58;;;;;;;;;;;;;;;;;;;;;
2021/07/26 11:23:02;;;;;;;;;;;;;;;;;;;;;
2021/07/26 11:33:57;;;;;;;;;;;;;;;;;;;;;
2021/07/26 13:05:50;;;;;;;;;;;;;;;7.27;100.00;99158.03;6405746;22;19992;-91
2021/07/26 13:31:38;;;;;;;;;;;;;;;;;;;;;
2021/07/26 13:50:51;;;;;;;;;;;;;;;8.41;100.00;99133.09;5143621;27;19958;-89
2021/07/26 13:55:45;;;;;;;;;;;;;;;7.50;100.00;99136.94;5135255;28;20282;-88
2021/07/26 13:58:11;;;;;;;;;;;;;;;7.40;100.00;99134.69;5134415;28;19931;-88
2021/07/26 14:00:39;;;;;;;;;;;;;;;7.38;100.00;99128.59;5136381;27;19930;-88
2021/07/26 14:03:04;;;;;;;;;;;;;;;7.39;100.00;99135.59;5136674;28;19924;-89
2021/07/26 14:05:30;;;;;;;;;;;;;;;7.34;100.00;99140.19;5118541;27;19920;-88
2021/07/26 14:07:55;;;;;;;;;;;;;;;7.34;100.00;99137.56;5136650;28;19920;-88
2021/07/26 14:10:20;;;;;;;;;;;;;;;7.35;100.00;99135.78;5135807;28;19989;-88
2021/07/26 14:12:46;;;;;;;;;;;;;;;7.27;100.00;99141.34;5127442;28;19959;-89
2021/07/26 14:15:11;;;;;;;;;;;;;;;7.24;100.00;99147.63;5132210;28;19920;-87
2021/07/26 14:17:40;;;;;;;;;;;;;;;7.28;100.00;99141.28;5131466;28;20379;-88
2021/07/26 14:20:05;;;;;;;;;;;;;;;7.26;100.00;99140.50;5136356;28;19947;-88
2021/07/26 14:22:31;;;;;;;;;;;;;;;7.16;100.00;99151.44;5136476;28;19931;-88
2021/07/26 14:24:56;;;;;;;;;;;;;;;7.24;100.00;99150.25;5134970;27;19919;-88
2021/07/26 14:27:22;;;;;;;;;;;;;;;7.26;100.00;99151.03;5126861;28;20010;-88
2021/07/26 14:29:47;;;;;;;;;;;;;;;7.28;100.00;99150.97;5136447;27;20014;-89
2021/07/26 14:32:12;;;;;;;;;;;;;;;7.27;100.00;99162.44;5135960;28;20012;-88
2021/07/26 14:34:38;;;;;;;;;;;;;;;7.26;100.00;99161.56;5136514;27;19919;-88
2021/07/26 14:37:04;;;;;;;;;;;;;;;7.30;100.00;99154.41;5136155;28;20294;-88
2021/07/26 14:39:29;;;;;;;;;;;;;;;7.33;100.00;99156.06;5129275;28;19924;-88
2021/07/26 14:41:55;;;;;;;;;;;;;;;7.24;100.00;99152.88;5135374;27;19947;-88
2021/07/26 14:44:30;;;;;;;;;;;;;;;7.25;100.00;99146.69;5133553;27;19923;-90
2021/07/26 14:46:56;;;;;;;;;;;;;;;7.27;100.00;99154.53;5135065;28;19920;-89
2021/07/26 14:49:21;;;;;;;;;;;;;;;7.26;100.00;99156.31;5135546;28;20458;-88
2021/07/26 14:51:47;;;;;;;;;;;;;;;7.26;100.00;99151.03;5117988;28;19931;-88
2021/07/26 14:54:12;;;;;;;;;;;;;;;7.25;100.00;99159.00;5132393;27;19923;-89
2021/07/26 14:56:38;;;;;;;;;;;;;;;7.36;100.00;99154.16;5131514;28;19994;-88
2021/07/26 14:59:08;;;;;;;;;;;;;;;7.34;100.00;99158.66;5135975;28;19924;-89
2021/07/26 15:01:34;;;;;;;;;;;;;;;7.36;100.00;99154.16;5123335;27;20267;-88
2021/07/26 15:03:59;;;;;;;;;;;;;;;7.42;100.00;99156.56;5120762;28;20357;-89
2021/07/26 15:06:24;;;;;;;;;;;;;;;7.37;100.00;99163.81;5119741;28;19920;-88
2021/07/26 15:08:50;;;;;;;;;;;;;;;7.36;100.00;99151.53;5121461;28;20214;-88
2021/07/26 15:13:40;;;;;;;;;;;;;;;7.34;100.00;99152.50;5120639;27;19927;-88
2021/07/26 15:16:05;;;;;;;;;;;;;;;7.38;100.00;99154.94;5121602;28;20386;-87
2021/07/26 15:18:31;;;;;;;;;;;;;;;7.37;100.00;99155.91;5121842;28;19955;-87
2021/07/26 15:20:57;;;;;;;;;;;;;;;7.38;100.00;99154.94;5122146;28;19927;-88
2021/07/26 15:23:23;;;;;;;;;;;;;;;7.36;100.00;99148.03;5104073;28;20033;-88
2021/07/26 15:25:51;;;;;;;;;;;;;;;7.34;100.00;99149.88;5101749;28;19920;-87
2021/07/26 15:28:20;;;;;;;;;;;;;;;7.34;100.00;99147.22;5084646;28;19920;-89
2021/07/26 15:30:45;;;;;;;;;;;;;;;7.33;100.00;99151.66;5110753;28;19924;-87
2021/07/26 15:33:11;;;;;;;;;;;;;;;7.34;100.00;99148.09;5106063;28;19977;-87
2021/07/26 15:35:36;;;;;;;;;;;;;;;7.30;100.00;99145.66;5122106;28;19920;-88
2021/07/26 15:38:02;;;;;;;;;;;;;;;7.31;100.00;99147.34;5122297;28;19920;-87
2021/07/26 15:49:06;;;;;;;;;;;;;;;10.36;100.00;99144.06;5122822;27;19946;-90
2021/07/26 15:51:31;;;;;;;;;;;;;;;8.94;100.00;99150.97;5127854;27;19931;-91
2021/07/26 15:54:00;;;;;;;;;;;;;;;8.50;100.00;99151.19;5114718;27;19919;-89
2021/07/26 15:56:34;;;;;;;;;;;;;;;8.23;100.00;99158.50;5113012;27;19939;-91
2021/07/26 15:59:02;;;;;;;;;;;;;;;8.11;100.00;99158.13;5118326;27;19919;-91
2021/07/26 16:01:27;;;;;;;;;;;;;;;7.93;100.00;99153.59;5111775;27;20230;-91
2021/07/26 16:03:55;;;;;;;;;;;;;;;7.89;100.00;99162.59;5118897;27;19920;-92
2021/07/26 16:06:29;;;;;;;;;;;;;;;7.81;100.00;99155.84;5115611;27;19923;-90
2021/07/26 16:08:55;;;;;;;;;;;;;;;7.81;100.00;99152.34;5138977;27;20198;-91
2021/07/26 16:11:20;;;;;;;;;;;;;;;7.80;100.00;99154.16;5096423;27;19928;-90
2021/07/26 16:13:46;;;;;;;;;;;;;;;7.81;100.00;99152.34;5076041;28;20255;-91
2021/07/26 16:16:12;;;;;;;;;;;;;;;7.78;100.00;99150.69;5078774;28;20285;-90
2021/07/26 16:18:40;;;;;;;;;;;;;;;7.78;100.00;99153.34;5075368;28;19971;-91
2021/07/26 16:21:05;;;;;;;;;;;;;;;7.77;100.00;99146.34;5075252;28;19955;-90
2021/07/26 16:23:35;;;;;;;;;;;;;;;7.73;100.00;99143.91;5081333;28;19911;-94
2021/07/26 16:26:05;;;;;;;;;;;;;;;7.77;100.00;99154.28;5100236;28;20117;-90
2021/07/26 16:28:30;;;;;;;;;;;;;;;7.74;100.00;99150.91;5099878;28;19991;-93
2021/07/26 16:30:55;;;;;;;;;;;;;;;7.75;100.00;99157.88;5103823;28;19973;-90
2021/07/26 16:33:21;;;;;;;;;;;;;;;7.99;100.00;99167.44;5094415;28;19930;-91
2021/07/26 16:35:46;;;;;;;;;;;;;;;7.85;100.00;99171.53;5096747;28;19932;-90
2021/07/26 16:38:12;;;;;;;;;;;;;;;7.77;100.00;99171.84;5099708;28;19924;-91
2021/07/26 16:40:37;;;;;;;;;;;;;;;7.69;100.00;99171.31;5097488;28;19939;-92
2021/07/26 16:43:10;;;;;;;;;;;;;;;7.69;100.00;99169.56;5110939;28;19928;-91
2021/07/26 16:45:38;;;;;;;;;;;;;;;7.67;100.00;99167.88;5091219;28;20825;-92
2021/07/26 16:48:11;;;;;;;;;;;;;;;7.71;100.00;99180.03;5090890;28;19947;-89
2021/07/26 16:50:36;;;;;;;;;;;;;;;7.67;100.00;99184.56;5089147;27;19923;-90
2021/07/26 16:53:02;;;;;;;;;;;;;;;7.69;100.00;99179.22;5111807;27;20012;-90
2021/07/26 16:55:27;;;;;;;;;;;;;;;7.70;100.00;99179.16;5090968;28;19919;-91
2021/07/26 16:57:52;;;;;;;;;;;;;;;7.66;100.00;99172.31;5090412;28;19930;-89
2021/07/26 17:00:18;;;;;;;;;;;;;;;7.68;100.00;99173.09;5092402;28;20274;-88
2021/07/26 17:02:43;;;;;;;;;;;;;;;7.66;100.00;99180.22;5096891;28;19919;-89
2021/07/26 17:05:09;;;;;;;;;;;;;;;7.67;100.00;99171.38;5088785;28;19924;-88
2021/07/26 17:07:36;;;;;;;;;;;;;;;7.68;100.00;99173.09;5088626;28;19967;-89
2021/07/26 17:10:10;;;;;;;;;;;;;;;7.71;100.00;99162.44;5093149;28;19959;-88
2021/07/26 17:12:37;;;;;;;;;;;;;;;7.67;100.00;99160.81;5082478;28;20324;-90
2021/07/26 17:15:02;;;;;;;;;;;;;;;7.71;100.00;99161.59;5091371;28;20355;-90
2021/07/26 17:17:28;;;;;;;;;;;;;;;7.66;100.00;99163.53;5095320;28;19984;-89
2021/07/26 17:19:53;;;;;;;;;;;;;;;7.65;100.00;99167.94;5097608;28;19920;-89
2021/07/26 17:22:20;;;;;;;;;;;;;;;7.68;100.00;99170.47;5111105;28;19919;-89
2021/07/26 17:24:45;;;;;;;;;;;;;;;7.71;100.00;99174.78;5109532;28;19927;-89
2021/07/26 17:27:16;;;;;;;;;;;;;;;7.72;100.00;99169.44;5090227;28;20253;-89
2021/07/26 17:29:41;;;;;;;;;;;;;;;7.68;100.00;99159.91;5108463;28;20244;-91
2021/07/26 17:32:06;;;;;;;;;;;;;;;7.74;100.00;99162.31;5090293;28;20014;-90
2021/07/26 17:34:32;;;;;;;;;;;;;;;7.68;100.00;99167.81;5110372;28;20488;-89
2021/07/26 17:36:58;;;;;;;;;;;;;;;7.73;100.00;99170.28;5089245;28;19930;-88
2021/07/26 17:39:26;;;;;;;;;;;;;;;7.69;100.00;99173.94;5088594;28;19924;-90
2021/07/26 17:41:54;;;;;;;;;;;;;;;7.69;100.00;99172.19;5110795;28;19924;-89
2021/07/26 17:44:20;;;;;;;;;;;;;;;7.70;100.00;99179.16;5086475;28;20191;-89
2021/07/26 17:46:45;;;;;;;;;;;;;;;7.64;100.00;99182.03;5089205;28;19920;-88
2021/07/26 17:49:11;;;;;;;;;;;;;;;7.65;100.00;99191.69;5085469;28;19924;-91
2021/07/26 17:51:36;;;;;;;;;;;;;;;7.60;100.00;99185.75;5109994;28;19920;-89
2021/07/26 17:54:05;;;;;;;;;;;;;;;7.61;100.00;99200.63;5087996;28;19924;-89
2021/07/26 17:56:34;;;;;;;;;;;;;;;7.62;100.00;99202.34;5092818;28;19965;-88
2021/07/26 17:59:00;;;;;;;;;;;;;;;7.55;100.00;99203.53;5106836;28;19923;-88
2021/07/26 18:01:25;;;;;;;;;;;;;;;7.53;100.00;99194.81;5090222;28;19970;-88
2021/07/26 18:03:53;;;;;;;;;;;;;;;7.53;100.00;99197.44;5090510;28;19973;-90
2021/07/26 18:06:19;;;;;;;;;;;;;;;7.51;100.00;99194.00;5093265;28;19919;-89
2021/07/26 18:08:45;;;;;;;;;;;;;;;7.53;100.00;99200.06;5093631;28;19931;-90
2021/07/26 18:16:03;;;;;;;;;;;;;;;7.54;100.00;99214.97;5114481;28;19920;-91
2021/07/26 18:18:38;;;;;;;;;;;;;;;7.48;100.00;99220.50;5091025;28;19920;-89
2021/07/26 18:21:05;;;;;;;;;;;;;;;7.52;100.00;99214.19;5091278;28;19967;-88
2021/07/26 18:23:30;;;;;;;;;;;;;;;7.52;100.00;99217.69;5097461;28;19920;-89
2021/07/26 18:25:56;;;;;;;;;;;;;;;7.48;100.00;99215.22;5090529;28;20014;-89
2021/07/26 18:28:21;;;;;;;;;;;;;;;7.49;100.00;99211.69;5098481;28;20172;-89
2021/07/26 18:30:49;;;;;;;;;;;;;;;7.42;100.00;99222.47;5086800;28;19934;-89
2021/07/26 18:33:15;;;;;;;;;;;;;;;7.46;100.00;99226.66;5088956;28;19928;-89
2021/07/26 18:35:40;;;;;;;;;;;;;;;7.38;100.00;99223.47;5087208;28;19935;-89
2021/07/26 18:38:07;;;;;;;;;;;;;;;7.43;100.00;99229.44;5097919;28;19930;-89
2021/07/26 18:40:36;;;;;;;;;;;;;;;7.39;100.00;99225.22;5101753;28;20014;-89
2021/07/26 18:43:02;;;;;;;;;;;;;;;7.42;100.00;99224.25;5096096;28;19931;-89
2021/07/26 18:45:28;;;;;;;;;;;;;;;7.39;100.00;99230.47;5115823;28;19945;-88
2021/07/26 18:47:56;;;;;;;;;;;;;;;7.42;100.00;99234.78;5090054;28;20330;-89
2021/07/26 18:50:22;;;;;;;;;;;;;;;7.34;100.00;99240.34;5091724;28;20256;-91
2021/07/26 18:52:47;;;;;;;;;;;;;;;7.38;100.00;99243.72;5119120;27;20019;-89
2021/07/26 18:57:39;;;;;;;;;;;;;;;7.29;100.00;99244.91;5109869;27;20018;-90
2021/07/26 19:00:08;;;;;;;;;;;;;;;7.34;100.00;99253.53;5118209;28;19949;-89
2021/07/26 19:02:36;;;;;;;;;;;;;;;7.41;100.00;99257.63;5111300;28;20454;-91
2021/07/26 19:05:05;;;;;;;;;;;;;;;7.37;100.00;99257.81;5115437;27;19927;-91
2021/07/26 19:07:31;;;;;;;;;;;;;;;7.33;100.00;99257.06;5092981;28;19954;-91
2021/07/26 19:09:59;;;;;;;;;;;;;;;7.28;100.00;99274.84;5091161;28;19935;-90
2021/07/26 19:12:24;;;;;;;;;;;;;;;7.34;100.00;99266.72;5110030;28;19920;-89
2021/07/26 19:14:50;;;;;;;;;;;;;;;7.35;100.00;99278.09;5112238;28;19927;-90
2021/07/26 19:17:15;;;;;;;;;;;;;;;7.35;100.00;99292.13;5109686;28;19920;-89
2021/07/26 19:19:41;;;;;;;;;;;;;;;7.32;100.00;99292.25;5111215;28;20283;-92
2021/07/26 19:22:10;;;;;;;;;;;;;;;7.36;100.00;99300.91;5113497;28;20260;-89
2021/07/26 19:24:36;;;;;;;;;;;;;;;7.33;100.00;99301.88;5101422;28;20267;-89
2021/07/26 19:27:02;;;;;;;;;;;;;;;7.28;100.00;99295.91;5095803;28;19989;-90
2021/07/26 19:29:32;;;;;;;;;;;;;;;7.38;100.00;99307.81;5093693;28;20294;-89
2021/07/26 19:32:00;;;;;;;;;;;;;;;7.34;100.00;99297.44;5116703;27;19947;-90
2021/07/26 19:34:31;;;;;;;;;;;;;;;7.30;100.00;99302.00;5093719;28;19920;-90
2021/07/26 19:36:57;;;;;;;;;;;;;;;7.37;100.00;99308.75;5110110;28;19967;-91
2021/07/26 19:39:25;;;;;;;;;;;;;;;7.27;100.00;99307.38;5115354;28;19962;-89
2021/07/26 19:41:50;;;;;;;;;;;;;;;7.26;100.00;99313.56;5088470;28;19920;-89
2021/07/26 19:44:19;;;;;;;;;;;;;;;7.32;100.00;99312.47;5098514;28;19993;-90
2021/07/26 19:46:45;;;;;;;;;;;;;;;7.28;100.00;99312.59;5100366;28;19919;-92
2021/07/26 19:49:10;;;;;;;;;;;;;;;7.21;100.00;99307.59;5108560;28;20424;-91
2021/07/26 19:51:35;;;;;;;;;;;;;;;7.25;100.00;99311.84;5108809;28;20027;-91
2021/07/26 19:54:04;;;;;;;;;;;;;;;7.17;100.00;99316.53;5091586;28;19920;-91
2021/07/26 19:56:30;;;;;;;;;;;;;;;7.25;100.00;99317.97;5088653;28;20281;-90
2021/07/26 19:58:58;;;;;;;;;;;;;;;7.22;100.00;99318.06;5089358;28;20022;-89
2021/07/26 20:01:23;;;;;;;;;;;;;;;7.25;100.00;99317.97;5091265;28;20298;-89
2021/07/26 20:03:51;;;;;;;;;;;;;;;7.23;100.00;99319.81;5094945;28;19928;-90
2021/07/26 20:06:20;;;;;;;;;;;;;;;7.23;100.00;99324.22;5109197;28;20002;-89
2021/07/26 20:08:45;;;;;;;;;;;;;;;7.16;100.00;99326.19;5090959;28;19924;-91
2021/07/26 20:11:11;;;;;;;;;;;;;;;7.25;100.00;99332.94;5091077;28;19931;-89
2021/07/26 20:13:39;;;;;;;;;;;;;;;7.22;100.00;99339.16;5089069;28;19950;-90
2021/07/26 20:16:13;;;;;;;;;;;;;;;7.19;100.00;99338.41;5091464;28;19920;-90
2021/07/26 20:18:38;;;;;;;;;;;;;;;7.16;100.00;99334.09;5084981;28;19924;-89
2021/07/26 20:21:04;;;;;;;;;;;;;;;7.17;100.00;99343.75;5113882;28;19920;-89
2021/07/26 20:23:29;;;;;;;;;;;;;;;7.17;100.00;99340.25;5113739;28;19919;-89
2021/07/26 20:25:58;;;;;;;;;;;;;;;7.11;100.00;99358.91;5095108;28;19930;-91
2021/07/26 20:28:23;;;;;;;;;;;;;;;7.08;100.00;99358.13;5093556;28;19944;-89
2021/07/26 20:30:49;;;;;;;;;;;;;;;7.19;100.00;99360.34;5093804;28;19978;-90
2021/07/26 20:33:18;;;;;;;;;;;;;;;7.14;100.00;99361.44;5095053;28;20299;-90
2021/07/26 20:35:46;;;;;;;;;;;;;;;7.18;100.00;99365.66;5110657;28;19988;-92
2021/07/26 20:38:11;;;;;;;;;;;;;;;7.15;100.00;99363.13;5087936;28;19919;-90
2021/07/26 20:40:36;;;;;;;;;;;;;;;7.21;100.00;99357.66;5093925;28;19920;-91
2021/07/26 20:43:05;;;;;;;;;;;;;;;7.15;100.00;99357.88;5096362;28;20444;-90
2021/07/26 20:45:35;;;;;;;;;;;;;;;7.19;100.00;99356.84;5115178;28;20294;-90
2021/07/26 20:48:13;;;;;;;;;;;;;;;7.22;100.00;99362.03;5090757;28;19920;-89
2021/07/26 20:51:07;;;;;;;;;;;;;;;7.18;100.00;99353.38;5082069;28;19928;-89
2021/07/26 20:53:38;;;;;;;;;;;;;;;7.16;100.00;99364.88;5109202;27;19998;-90
2021/07/26 20:56:06;;;;;;;;;;;;;;;7.22;100.00;99367.28;5084711;28;20316;-91
2021/07/26 20:58:35;;;;;;;;;;;;;;;7.18;100.00;99368.31;5082805;28;20192;-91
2021/07/26 21:01:00;;;;;;;;;;;;;;;7.29;100.00;99376.69;5102270;28;19916;-90
2021/07/26 21:03:31;;;;;;;;;;;;;;;7.29;100.00;99376.69;5118394;27;19919;-91
2021/07/26 21:05:56;;;;;;;;;;;;;;;7.26;100.00;99371.56;5122779;27;19966;-89
2021/07/26 21:08:23;;;;;;;;;;;;;;;7.23;100.00;99366.38;5140200;27;19919;-89
2021/07/26 21:10:49;;;;;;;;;;;;;;;7.23;100.00;99372.50;5111079;28;19923;-89
2021/07/26 21:13:16;;;;;;;;;;;;;;;7.18;100.00;99374.47;5119486;27;19920;-89
2021/07/26 21:15:55;;;;;;;;;;;;;;;7.26;100.00;99371.56;5122495;27;19958;-89
2021/07/26 21:18:20;;;;;;;;;;;;;;;7.23;100.00;99380.41;5122215;27;19923;-89
2021/07/26 21:20:46;;;;;;;;;;;;;;;7.20;100.00;99372.63;5122552;27;19973;-90
2021/07/26 21:23:11;;;;;;;;;;;;;;;7.27;100.00;99373.25;5122111;27;20183;-89
2021/07/26 21:25:40;;;;;;;;;;;;;;;7.30;100.00;99378.41;5122307;27;19932;-89
2021/07/26 21:28:10;;;;;;;;;;;;;;;7.32;100.00;99381.84;5121726;27;19915;-90
2021/07/26 21:30:36;;;;;;;;;;;;;;;7.28;100.00;99372.34;5099945;28;19931;-90
2021/07/26 21:33:02;;;;;;;;;;;;;;;7.34;100.00;99364.22;5114459;28;19920;-89
2021/07/26 21:35:30;;;;;;;;;;;;;;;7.32;100.00;99367.81;5081544;28;19920;-89
2021/07/26 21:37:56;;;;;;;;;;;;;;;7.27;100.00;99358.31;5109335;28;19931;-89
2021/07/26 21:40:21;;;;;;;;;;;;;;;7.28;100.00;99370.56;5099571;28;20211;-90
2021/07/26 21:42:46;;;;;;;;;;;;;;;7.27;100.00;99367.97;5114346;28;20058;-89
2021/07/26 21:45:15;;;;;;;;;;;;;;;7.33;100.00;99367.75;5098300;28;19931;-89
2021/07/26 21:47:40;;;;;;;;;;;;;;;7.26;100.00;99372.41;5082821;28;19930;-88
2021/07/26 21:50:07;;;;;;;;;;;;;;;7.26;100.00;99369.78;5101511;28;20211;-89
2021/07/26 21:52:32;;;;;;;;;;;;;;;7.25;100.00;99367.19;5102787;28;19990;-91
2021/07/26 21:54:59;;;;;;;;;;;;;;;7.29;100.00;99371.41;5081830;28;19927;-89
2021/07/26 21:57:27;;;;;;;;;;;;;;;7.27;100.00;99368.88;5098979;28;19920;-89
2021/07/26 21:59:52;;;;;;;;;;;;;;;7.25;100.00;99368.03;5118839;28;19934;-90
2021/07/26 22:02:18;;;;;;;;;;;;;;;7.24;100.00;99368.09;5101548;28;19920;-90
2021/07/26 22:04:46;;;;;;;;;;;;;;;7.25;100.00;99375.09;5101387;28;19920;-90
2021/07/26 22:07:24;;;;;;;;;;;;;;;7.19;100.00;99372.66;5102573;28;19920;-93
2021/07/26 22:09:57;;;;;;;;;;;;;;;7.23;100.00;99372.50;5097100;28;19935;-92
2021/07/26 22:12:31;;;;;;;;;;;;;;;7.33;100.00;99369.56;5119259;28;19924;-90
2021/07/26 22:18:02;;;;;;;;;;;;;;;7.23;100.00;99371.66;5121426;28;19927;-90
2021/07/26 22:20:35;;;;;;;;;;;;;;;7.27;100.00;99375.88;5123331;28;20218;-92
2021/07/26 22:23:01;;;;;;;;;;;;;;;7.30;100.00;99375.78;5107509;28;19948;-91
2021/07/26 22:25:26;;;;;;;;;;;;;;;7.22;100.00;99372.56;5105730;28;19969;-90
2021/07/26 22:27:52;;;;;;;;;;;;;;;7.24;100.00;99376.88;5123109;28;19923;-89
2021/07/26 22:30:17;;;;;;;;;;;;;;;7.25;100.00;99373.31;5122917;28;19982;-90
2021/07/26 22:32:43;;;;;;;;;;;;;;;7.24;100.00;99376.00;5105211;28;20245;-90
2021/07/26 22:35:08;;;;;;;;;;;;;;;7.18;100.00;99373.56;5105307;28;19919;-90
2021/07/26 22:37:33;;;;;;;;;;;;;;;7.25;100.00;99372.47;5105893;28;20210;-91
2021/07/26 22:39:59;;;;;;;;;;;;;;;7.25;100.00;99368.03;5105160;28;19923;-90
2021/07/26 22:42:24;;;;;;;;;;;;;;;7.24;100.00;99368.97;5105633;28;20313;-90
2021/07/26 22:44:50;;;;;;;;;;;;;;;7.25;100.00;99375.09;5105942;28;19920;-92
2021/07/26 22:47:18;;;;;;;;;;;;;;;7.20;100.00;99371.78;5111676;27;19931;-93
2021/07/26 22:49:46;;;;;;;;;;;;;;;7.24;100.00;99371.59;5124025;27;19915;-92
2021/07/26 22:52:12;;;;;;;;;;;;;;;7.27;100.00;99367.97;5125886;27;19914;-94
2021/07/26 22:54:37;;;;;;;;;;;;;;;7.29;100.00;99360.88;5125792;27;19907;-93
2021/07/26 22:57:03;;;;;;;;;;;;;;;7.20;100.00;99356.81;5125819;27;19970;-94
2021/07/26 22:59:28;;;;;;;;;;;;;;;7.26;100.00;99358.38;5125844;27;19967;-94
2021/07/26 23:01:54;;;;;;;;;;;;;;;7.25;100.00;99365.41;5125716;27;19921;-94
2021/07/26 23:04:19;;;;;;;;;;;;;;;7.24;100.00;99362.81;5125658;27;19915;-95
2021/07/26 23:06:45;;;;;;;;;;;;;;;7.25;100.00;99364.56;5125747;27;19942;-93
2021/07/26 23:09:11;;;;;;;;;;;;;;;7.23;100.00;99350.56;5125531;27;19929;-95
2021/07/26 23:11:36;;;;;;;;;;;;;;;7.23;100.00;99347.94;5125622;27;19908;-94
2021/07/26 23:14:06;;;;;;;;;;;;;;;7.21;100.00;99357.66;5125548;27;19956;-94
2021/07/26 23:16:32;;;;;;;;;;;;;;;7.25;100.00;99354.00;5125391;27;19939;-94
2021/07/26 23:18:57;;;;;;;;;;;;;;;7.20;100.00;99355.97;5125505;27;19915;-92
2021/07/26 23:21:23;;;;;;;;;;;;;;;7.23;100.00;99361.97;5124867;27;19971;-92
2021/07/26 23:23:48;;;;;;;;;;;;;;;7.23;100.00;99361.13;5125336;27;19908;-93
2021/07/26 23:26:13;;;;;;;;;;;;;;;7.19;100.00;99362.13;5125261;27;19915;-93
2021/07/26 23:28:39;;;;;;;;;;;;;;;7.25;100.00;99361.91;5125247;27;19908;-93
2021/07/26 23:31:05;;;;;;;;;;;;;;;7.20;100.00;99366.50;5125262;27;19914;-94
2021/07/26 23:33:30;;;;;;;;;;;;;;;7.23;100.00;99364.59;5125176;27;19995;-93
2021/07/26 23:35:58;;;;;;;;;;;;;;;7.22;100.00;99364.66;5125109;27;19915;-94
2021/07/26 23:38:23;;;;;;;;;;;;;;;7.24;100.00;99374.25;5124941;27;19908;-94
2021/07/26 23:40:48;;;;;;;;;;;;;;;7.24;100.00;99374.25;5125042;27;19915;-93
2021/07/26 23:43:14;;;;;;;;;;;;;;;7.15;100.00;99376.31;5124958;27;19908;-93
2021/07/26 23:45:39;;;;;;;;;;;;;;;7.23;100.00;99371.66;5124890;27;19908;-93
2021/07/26 23:48:04;;;;;;;;;;;;;;;7.22;100.00;99370.78;5124669;27;19947;-93
2021/07/26 23:50:30;;;;;;;;;;;;;;;7.22;100.00;99385.75;5124519;27;19908;-93
2021/07/26 23:52:55;;;;;;;;;;;;;;;7.18;100.00;99385.00;5124684;27;19907;-93
2021/07/26 23:55:20;;;;;;;;;;;;;;;7.19;100.00;99385.84;5124677;27;19911;-92
2021/07/26 23:57:46;;;;;;;;;;;;;;;7.21;100.00;99382.25;5123591;27;20243;-91
